createdAt,value
2022-11-04T00:01:07.747Z,7.43
2022-11-04T00:04:13.347Z,7.39
2022-11-04T00:07:30.842Z,7.42
2022-11-04T00:10:47.799Z,7.37
2022-11-04T00:13:51.009Z,7.36
2022-11-04T00:17:14.021Z,7.32
2022-11-04T00:20:35.054Z,7.29
2022-11-04T00:23:55.417Z,7.28
2022-11-04T00:27:16.486Z,7.33
2022-11-04T00:30:21.137Z,7.34
2022-11-04T00:33:27.625Z,7.28
2022-11-04T00:36:32.760Z,7.25
2022-11-04T00:39:35.857Z,7.24
2022-11-04T00:42:39.307Z,7.33
2022-11-04T00:45:42.882Z,7.44
2022-11-04T00:48:47.496Z,7.38
2022-11-04T00:51:50.766Z,7.37
2022-11-04T00:54:53.754Z,7.47
2022-11-04T00:57:57.252Z,7.36
2022-11-04T01:01:00.398Z,7.36
2022-11-04T01:04:05.009Z,7.44
2022-11-04T01:07:08.316Z,7.47
2022-11-04T01:10:12.033Z,7.46
2022-11-04T01:13:15.351Z,7.52
2022-11-04T01:16:19.190Z,7.48
2022-11-04T01:19:24.542Z,7.37
2022-11-04T01:22:28.185Z,7.31
2022-11-04T01:25:31.323Z,7.46
2022-11-04T01:28:34.809Z,7.58
2022-11-04T01:31:37.980Z,7.60
2022-11-04T01:34:43.635Z,7.64
2022-11-04T01:37:47.048Z,7.74
2022-11-04T01:40:50.054Z,7.70
2022-11-04T01:43:57.702Z,7.69
2022-11-04T01:47:00.703Z,7.78
2022-11-04T01:50:09.954Z,7.82
2022-11-04T01:53:19.505Z,7.83
2022-11-04T01:56:22.774Z,7.84
2022-11-04T01:59:29.569Z,7.81
2022-11-04T02:02:33.244Z,7.82
2022-11-04T02:05:41.950Z,7.79
2022-11-04T02:08:45.623Z,7.83
2022-11-04T02:12:06.509Z,7.82
2022-11-04T02:15:10.406Z,7.82
2022-11-04T02:18:45.298Z,7.81
2022-11-04T02:22:29.611Z,7.81
2022-11-04T02:26:07.112Z,7.78
2022-11-04T02:29:41.283Z,7.78
2022-11-04T02:33:11.927Z,7.76
2022-11-04T02:36:26.813Z,7.65
2022-11-04T02:39:42.512Z,7.57
2022-11-04T02:42:58.941Z,7.51
2022-11-04T02:46:10.585Z,7.46
2022-11-04T02:49:16.240Z,7.40
2022-11-04T02:52:27.718Z,7.32
2022-11-04T02:55:36.654Z,7.29
2022-11-04T02:58:45.388Z,7.32
2022-11-04T03:01:53.589Z,7.32
2022-11-04T03:04:59.344Z,7.35
2022-11-04T03:08:09.292Z,7.36
2022-11-04T03:11:16.566Z,7.38
2022-11-04T03:14:25.526Z,7.46
2022-11-04T03:17:36.469Z,7.51
2022-11-04T03:20:41.602Z,7.49
2022-11-04T03:23:44.958Z,7.38
2022-11-04T03:26:54.183Z,7.31
2022-11-04T03:30:03.734Z,7.32
2022-11-04T03:33:20.567Z,7.32
2022-11-04T03:36:24.603Z,7.32
2022-11-04T03:39:27.738Z,7.47
2022-11-04T03:42:33.481Z,7.58
2022-11-04T03:45:36.901Z,7.58
2022-11-04T03:48:44.955Z,7.55
2022-11-04T03:51:47.914Z,7.53
2022-11-04T03:54:50.936Z,7.57
2022-11-04T03:58:00.779Z,7.57
2022-11-04T04:01:24.294Z,7.60
2022-11-04T04:04:31.987Z,7.68
2022-11-04T04:07:40.004Z,7.69
2022-11-04T04:10:50.998Z,7.76
2022-11-04T04:14:03.043Z,7.80
2022-11-04T04:20:22.817Z,7.75
2022-11-04T04:24:03.521Z,7.76
2022-11-04T04:27:29.350Z,7.72
2022-11-04T04:30:32.524Z,7.75
2022-11-04T04:33:35.483Z,7.72
2022-11-04T04:36:46.912Z,7.68
2022-11-04T04:40:12.271Z,7.70
2022-11-04T04:43:35.117Z,7.71
2022-11-04T04:46:39.813Z,7.77
2022-11-04T04:49:51.321Z,7.83
2022-11-04T04:52:57.995Z,7.77
2022-11-04T04:56:00.932Z,7.88
2022-11-04T04:59:03.927Z,7.90
2022-11-04T05:02:07.053Z,7.87
2022-11-04T05:05:10.881Z,7.95
2022-11-04T05:08:15.402Z,8.00
2022-11-04T05:11:20.520Z,8.00
2022-11-04T05:14:27.135Z,8.06
2022-11-04T05:17:30.090Z,8.04
2022-11-04T05:20:34.403Z,8.00
2022-11-04T05:23:40.794Z,7.93
2022-11-04T05:26:43.732Z,7.96
2022-11-04T05:29:46.821Z,7.98
2022-11-04T05:32:50.019Z,7.99
2022-11-04T05:35:53.096Z,8.10
2022-11-04T05:38:57.625Z,8.15
2022-11-04T05:42:01.528Z,8.11
2022-11-04T05:45:05.667Z,8.13
2022-11-04T05:48:08.640Z,8.15
2022-11-04T05:51:14.285Z,8.16
2022-11-04T05:54:18.561Z,8.14
2022-11-04T05:57:21.564Z,8.17
2022-11-04T06:00:24.771Z,8.16
2022-11-04T06:03:27.693Z,8.11
2022-11-04T06:06:33.609Z,8.11
2022-11-04T06:09:40.589Z,8.11
2022-11-04T06:12:43.865Z,8.09
2022-11-04T06:15:46.816Z,8.06
2022-11-04T06:18:49.918Z,8.09
2022-11-04T06:21:52.884Z,8.21
2022-11-04T06:24:57.435Z,8.19
2022-11-04T06:28:00.375Z,8.28
2022-11-04T06:31:07.215Z,8.36
2022-11-04T06:34:10.577Z,8.44
2022-11-04T06:37:13.787Z,8.51
2022-11-04T06:40:18.312Z,8.50
2022-11-04T06:43:21.241Z,8.53
2022-11-04T06:46:30.152Z,8.58
2022-11-04T06:49:33.146Z,8.58
2022-11-04T06:52:41.974Z,8.62
2022-11-04T06:55:47.003Z,8.66
2022-11-04T06:58:50.306Z,8.72
2022-11-04T07:01:54.062Z,8.74
2022-11-04T07:08:01.232Z,8.78
2022-11-04T07:11:05.624Z,8.80
2022-11-04T07:14:09.592Z,8.84
2022-11-04T07:17:12.995Z,8.86
2022-11-04T07:20:16.135Z,8.90
2022-11-04T07:23:19.276Z,8.94
2022-11-04T07:26:23.833Z,9.01
2022-11-04T07:29:26.818Z,9.09
2022-11-04T07:32:30.198Z,9.12
2022-11-04T07:35:33.125Z,9.21
2022-11-04T07:38:36.231Z,9.30
2022-11-04T07:41:40.529Z,9.35
2022-11-04T07:44:43.551Z,9.47
2022-11-04T07:47:46.478Z,9.53
2022-11-04T07:50:49.425Z,9.63
2022-11-04T07:53:52.856Z,9.74
2022-11-04T07:56:57.108Z,9.84
2022-11-04T08:00:00.481Z,9.98
2022-11-04T08:03:03.738Z,10.07
2022-11-04T08:06:10.335Z,10.15
2022-11-04T08:09:13.547Z,10.22
2022-11-04T08:12:17.877Z,10.29
2022-11-04T08:15:21.069Z,10.35
2022-11-04T08:18:24.332Z,10.34
2022-11-04T08:21:27.323Z,10.36
2022-11-04T08:24:30.268Z,10.37
2022-11-04T08:27:35.746Z,10.36
2022-11-04T08:30:38.997Z,10.45
2022-11-04T08:33:42.863Z,10.53
2022-11-04T08:36:46.747Z,10.55
2022-11-04T08:39:49.700Z,10.59
2022-11-04T08:42:54.048Z,10.63
2022-11-04T08:45:57.111Z,10.68
2022-11-04T08:49:01.069Z,10.70
2022-11-04T08:52:05.161Z,10.75
2022-11-04T08:55:10.482Z,10.83
2022-11-04T08:58:15.401Z,10.88
2022-11-04T09:01:20.690Z,10.95
2022-11-04T09:04:24.020Z,10.87
2022-11-04T09:07:27.057Z,10.87
2022-11-04T09:10:30.181Z,10.91
2022-11-04T09:13:39.401Z,10.95
2022-11-04T09:16:44.149Z,11.01
2022-11-04T09:19:47.119Z,11.05
2022-11-04T09:22:50.956Z,11.08
2022-11-04T09:25:55.709Z,11.13
2022-11-04T09:29:01.050Z,11.14
2022-11-04T09:32:06.843Z,11.16
2022-11-04T09:35:10.582Z,11.23
2022-11-04T09:38:13.640Z,11.28
2022-11-04T09:41:56.523Z,11.28
2022-11-04T09:45:22.773Z,11.32
2022-11-04T09:48:31.318Z,11.38
2022-11-04T09:55:03.072Z,11.44
2022-11-04T09:58:09.684Z,11.46
2022-11-04T10:01:28.904Z,11.52
2022-11-04T10:04:48.064Z,11.51
2022-11-04T10:08:32.652Z,11.50
2022-11-04T10:11:48.289Z,11.52
2022-11-04T10:15:14.766Z,11.49
2022-11-04T10:18:36.802Z,11.53
2022-11-04T10:21:48.717Z,11.56
2022-11-04T10:25:04.636Z,11.49
2022-11-04T10:28:12.425Z,11.49
2022-11-04T10:31:19.718Z,11.48
2022-11-04T10:34:35.729Z,11.52
2022-11-04T10:37:38.788Z,11.45
2022-11-04T10:40:44.518Z,11.46
2022-11-04T10:43:48.036Z,11.46
2022-11-04T10:47:02.390Z,11.43
2022-11-04T10:50:32.453Z,11.45
2022-11-04T10:53:36.130Z,11.46
2022-11-04T10:56:44.422Z,11.42
2022-11-04T10:59:54.992Z,11.34
2022-11-04T11:02:57.937Z,11.35
2022-11-04T11:06:28.058Z,11.32
2022-11-04T11:09:33.269Z,11.34
2022-11-04T11:12:51.691Z,11.34
2022-11-04T11:16:09.022Z,11.41
2022-11-04T11:19:21.351Z,11.37
2022-11-04T11:22:37.614Z,11.34
2022-11-04T11:25:45.523Z,11.27
2022-11-04T11:28:58.369Z,11.25
2022-11-04T11:32:01.931Z,11.21
2022-11-04T11:35:10.699Z,11.30
2022-11-04T11:38:22.570Z,11.29
2022-11-04T11:41:31.483Z,11.22
2022-11-04T11:44:44.033Z,11.15
2022-11-04T11:47:47.805Z,11.13
2022-11-04T11:50:58.699Z,11.08
2022-11-04T11:54:18.365Z,11.12
2022-11-04T11:57:34.467Z,11.09
2022-11-04T12:00:44.380Z,11.11
2022-11-04T12:11:00.855Z,11.04
2022-11-04T12:14:10.186Z,10.97
2022-11-04T12:17:33.905Z,10.90
2022-11-04T12:20:49.338Z,10.90
2022-11-04T12:23:57.077Z,10.88
2022-11-04T12:27:13.700Z,10.82
2022-11-04T12:30:24.116Z,10.77
2022-11-04T12:33:41.118Z,10.83
2022-11-04T12:37:04.910Z,10.92
2022-11-04T12:40:15.995Z,10.91
2022-11-04T12:43:33.652Z,10.82
2022-11-04T12:46:44.965Z,10.86
2022-11-04T12:50:07.640Z,10.89
2022-11-04T12:53:44.212Z,10.84
2022-11-04T12:56:52.444Z,10.86
2022-11-04T13:00:12.595Z,10.82
2022-11-04T13:03:21.494Z,10.83
2022-11-04T13:06:30.758Z,10.79
2022-11-04T13:09:42.665Z,10.81
2022-11-04T13:12:48.690Z,10.80
2022-11-04T13:15:58.121Z,10.83
2022-11-04T13:19:02.088Z,10.87
2022-11-04T13:22:13.001Z,10.86
2022-11-04T13:25:23.293Z,10.90
2022-11-04T13:28:27.005Z,10.87
2022-11-04T13:31:48.900Z,10.84
2022-11-04T13:34:58.892Z,10.86
2022-11-04T13:38:09.124Z,10.89
2022-11-04T13:42:01.362Z,10.93
2022-11-04T13:45:11.724Z,10.84
2022-11-04T13:48:21.868Z,10.86
2022-11-04T13:51:25.175Z,10.89
2022-11-04T13:54:31.968Z,10.83
2022-11-04T13:57:50.349Z,10.85
2022-11-04T14:01:14.828Z,10.79
2022-11-04T14:04:38.486Z,10.79
2022-11-04T14:08:12.012Z,10.79
2022-11-04T14:11:15.248Z,10.72
2022-11-04T14:14:20.754Z,10.75
2022-11-04T14:18:02.075Z,10.79
2022-11-04T14:21:10.109Z,10.72
2022-11-04T14:24:16.545Z,10.77
2022-11-04T14:27:29.479Z,10.72
2022-11-04T14:30:44.594Z,10.80
2022-11-04T14:33:53.702Z,10.85
2022-11-04T14:37:00.124Z,10.74
2022-11-04T14:40:05.971Z,10.79
2022-11-04T14:43:29.010Z,10.84
2022-11-04T14:46:43.943Z,10.80
2022-11-04T14:49:50.566Z,10.70
2022-11-04T14:52:58.680Z,10.67
2022-11-04T14:56:24.022Z,10.63
2022-11-04T14:59:28.926Z,10.64
2022-11-04T15:02:33.798Z,10.60
2022-11-04T15:05:39.646Z,10.63
2022-11-04T15:08:46.819Z,10.66
2022-11-04T15:12:07.229Z,10.64
2022-11-04T15:15:44.445Z,10.61
2022-11-04T15:18:47.922Z,10.60
2022-11-04T15:21:50.882Z,10.55
2022-11-04T15:24:56.691Z,10.54
2022-11-04T15:27:59.870Z,10.49
2022-11-04T15:31:17.218Z,10.50
2022-11-04T15:34:20.574Z,10.50
2022-11-04T15:37:24.910Z,10.48
2022-11-04T15:40:31.601Z,10.48
2022-11-04T15:43:34.874Z,10.46
2022-11-04T15:46:38.090Z,10.45
2022-11-04T15:49:41.094Z,10.45
2022-11-04T15:52:53.265Z,10.46
2022-11-04T15:55:57.730Z,10.47
2022-11-04T15:59:02.740Z,10.46
2022-11-04T16:02:18.780Z,10.41
2022-11-04T16:05:27.053Z,10.40
2022-11-04T16:08:31.382Z,10.38
2022-11-04T16:11:35.820Z,10.40
2022-11-04T16:14:39.054Z,10.38
2022-11-04T16:17:45.640Z,10.39
2022-11-04T16:20:50.509Z,10.42
2022-11-04T16:23:58.481Z,10.42
2022-11-04T16:27:03.017Z,10.44
2022-11-04T16:30:19.352Z,10.42
2022-11-04T16:33:22.262Z,10.39
2022-11-04T16:36:28.505Z,10.41
2022-11-04T16:39:34.057Z,10.43
2022-11-04T16:42:38.890Z,10.45
2022-11-04T16:45:52.420Z,10.39
2022-11-04T16:48:56.717Z,10.36
2022-11-04T16:52:04.013Z,10.36
2022-11-04T16:55:08.834Z,10.39
2022-11-04T16:58:19.172Z,10.38
2022-11-04T17:01:22.380Z,10.39
2022-11-04T17:04:25.421Z,10.41
2022-11-04T17:07:47.199Z,10.41
2022-11-04T17:10:51.857Z,10.41
2022-11-04T17:13:56.092Z,10.44
2022-11-04T17:16:59.081Z,10.39
2022-11-04T17:20:02.451Z,10.44
2022-11-04T17:23:05.386Z,10.38
2022-11-04T17:26:08.483Z,10.36
2022-11-04T17:29:17.083Z,10.40
2022-11-04T17:32:20.362Z,10.40
2022-11-04T17:35:23.674Z,10.39
2022-11-04T17:38:27.153Z,10.39
2022-11-04T17:41:47.511Z,10.41
2022-11-04T17:44:51.761Z,10.40
2022-11-04T17:47:54.744Z,10.41
2022-11-04T17:50:57.729Z,10.36
2022-11-04T17:54:00.952Z,10.36
2022-11-04T17:57:04.598Z,10.36
2022-11-04T18:00:14.220Z,10.33
2022-11-04T18:03:17.677Z,10.34
2022-11-04T18:06:21.328Z,10.33
2022-11-04T18:09:24.709Z,10.32
2022-11-04T18:12:41.616Z,10.31
2022-11-04T18:15:46.098Z,10.27
2022-11-04T18:18:49.027Z,10.31
2022-11-04T18:21:52.821Z,10.28
2022-11-04T18:24:55.847Z,10.32
2022-11-04T18:27:59.015Z,10.29
2022-11-04T18:31:09.252Z,10.26
2022-11-04T18:34:15.809Z,10.23
2022-11-04T18:37:18.928Z,10.25
2022-11-04T18:40:21.878Z,10.21
2022-11-04T18:43:25.078Z,10.20
2022-11-04T18:46:29.447Z,10.17
2022-11-04T18:49:32.372Z,10.13
2022-11-04T18:52:36.094Z,10.10
2022-11-04T18:55:39.178Z,10.11
2022-11-04T18:58:44.883Z,10.07
2022-11-04T19:01:51.297Z,10.03
2022-11-04T19:04:54.581Z,10.00
2022-11-04T19:07:57.504Z,9.99
2022-11-04T19:11:01.987Z,10.01
2022-11-04T19:14:09.581Z,10.01
2022-11-04T19:17:14.168Z,9.99
2022-11-04T19:20:17.824Z,10.01
2022-11-04T19:23:20.755Z,10.01
2022-11-04T19:26:26.813Z,10.07
2022-11-04T19:29:29.821Z,10.06
2022-11-04T19:32:34.066Z,10.07
2022-11-04T19:35:37.110Z,10.08
2022-11-04T19:38:40.245Z,10.07
2022-11-04T19:42:00.720Z,10.04
2022-11-04T19:45:03.968Z,10.06
2022-11-04T19:48:09.517Z,10.00
2022-11-04T19:51:14.157Z,9.98
2022-11-04T19:54:18.283Z,9.98
2022-11-04T19:57:21.467Z,9.97
2022-11-04T20:00:25.188Z,9.98
2022-11-04T20:03:30.361Z,9.96
2022-11-04T20:06:34.298Z,9.94
2022-11-04T20:09:38.074Z,9.94
2022-11-04T20:12:58.774Z,9.94
2022-11-04T20:16:03.841Z,9.95
2022-11-04T20:19:08.154Z,10.02
2022-11-04T20:22:11.286Z,9.98
2022-11-04T20:25:14.375Z,9.96
2022-11-04T20:28:17.416Z,9.99
2022-11-04T20:31:25.915Z,9.93
2022-11-04T20:34:32.970Z,9.92
2022-11-04T20:37:36.817Z,9.93
2022-11-04T20:40:39.770Z,9.96
2022-11-04T20:43:42.940Z,9.95
2022-11-04T20:46:46.752Z,9.95
2022-11-04T20:49:52.211Z,9.94
2022-11-04T20:52:55.150Z,9.89
2022-11-04T20:55:58.898Z,9.90
2022-11-04T20:59:03.110Z,9.91
2022-11-04T21:02:06.309Z,9.89
2022-11-04T21:05:11.289Z,9.91
2022-11-04T21:08:14.297Z,9.89
2022-11-04T21:11:17.785Z,9.91
2022-11-04T21:14:20.941Z,9.92
2022-11-04T21:17:24.022Z,9.94
2022-11-04T21:20:28.348Z,9.89
2022-11-04T21:23:31.582Z,9.91
2022-11-04T21:26:36.500Z,9.94
2022-11-04T21:29:39.550Z,9.90
2022-11-04T21:32:42.516Z,9.90
2022-11-04T21:35:48.031Z,9.90
2022-11-04T21:38:51.502Z,9.93
2022-11-04T21:41:54.589Z,9.91
2022-11-04T21:44:57.496Z,9.91
2022-11-04T21:48:00.848Z,9.93
2022-11-04T21:51:08.612Z,9.88
2022-11-04T21:54:11.745Z,9.87
2022-11-04T21:57:15.116Z,9.81
2022-11-04T22:00:18.495Z,9.77
2022-11-04T22:03:21.422Z,9.75
2022-11-04T22:06:32.163Z,9.70
2022-11-04T22:09:37.080Z,9.70
2022-11-04T22:12:40.026Z,9.69
2022-11-04T22:16:02.087Z,9.70
2022-11-04T22:19:07.546Z,9.74
2022-11-04T22:22:12.057Z,9.74
2022-11-04T22:25:15.089Z,9.74
2022-11-04T22:28:19.233Z,9.76
2022-11-04T22:31:25.695Z,9.71
2022-11-04T22:34:28.925Z,9.66
2022-11-04T22:37:33.362Z,9.69
2022-11-04T22:40:36.456Z,9.72
2022-11-04T22:43:39.454Z,9.72
2022-11-04T22:46:42.994Z,9.69
2022-11-04T22:49:45.940Z,9.72
2022-11-04T22:52:50.185Z,9.73
2022-11-04T22:55:53.838Z,9.71
2022-11-04T22:58:56.786Z,9.71
2022-11-04T23:01:59.923Z,9.72
2022-11-04T23:05:02.974Z,9.76
2022-11-04T23:08:07.456Z,9.76
2022-11-04T23:11:33.740Z,9.72
2022-11-04T23:14:54.936Z,9.72
2022-11-04T23:18:15.382Z,9.75
2022-11-04T23:21:39.333Z,9.69
2022-11-04T23:25:01.062Z,9.67
2022-11-04T23:28:22.343Z,9.62
2022-11-04T23:31:25.385Z,9.59
2022-11-04T23:34:45.884Z,9.54
2022-11-04T23:37:49.128Z,9.57
2022-11-04T23:41:14.988Z,9.58
2022-11-04T23:44:32.060Z,9.58
2022-11-04T23:47:55.360Z,9.58
2022-11-04T23:51:17.847Z,9.54
2022-11-04T23:54:38.241Z,9.58
2022-11-04T23:58:00.787Z,9.57
